createdAt,value
2018-05-11T00:00:12.281Z,4.77
2018-05-11T00:02:45.536Z,4.10
2018-05-11T00:05:18.808Z,4.80
2018-05-11T00:07:52.068Z,4.87
2018-05-11T00:10:25.337Z,4.70
2018-05-11T00:12:58.600Z,5.50
2018-05-11T00:15:31.872Z,4.67
2018-05-11T00:18:05.121Z,5.03
2018-05-11T00:20:38.391Z,5.70
2018-05-11T00:23:12.418Z,5.30
2018-05-11T00:25:45.689Z,5.93
2018-05-11T00:28:19.729Z,5.83
2018-05-11T00:30:52.980Z,6.17
2018-05-11T00:33:26.240Z,6.03
2018-05-11T00:35:59.502Z,5.67
2018-05-11T00:38:32.768Z,5.87
2018-05-11T00:41:06.786Z,5.77
2018-05-11T00:43:40.056Z,6.00
2018-05-11T00:46:13.307Z,6.33
2018-05-11T00:48:46.597Z,6.60
2018-05-11T00:51:19.856Z,5.90
2018-05-11T00:53:54.185Z,5.77
2018-05-11T00:56:28.204Z,5.80
2018-05-11T00:59:01.549Z,5.57
2018-05-11T01:01:34.801Z,6.67
2018-05-11T01:04:08.167Z,5.77
2018-05-11T01:06:41.417Z,6.30
2018-05-11T01:09:14.693Z,6.03
2018-05-11T01:11:47.941Z,5.83
2018-05-11T01:14:21.215Z,7.53
2018-05-11T01:16:54.507Z,6.20
2018-05-11T01:19:27.741Z,6.10
2018-05-11T01:22:01.742Z,5.43
2018-05-11T01:24:35.771Z,5.53
2018-05-11T01:27:09.039Z,5.80
2018-05-11T01:29:42.308Z,5.60
2018-05-11T01:32:15.560Z,6.00
2018-05-11T01:34:48.846Z,5.10
2018-05-11T01:37:22.887Z,5.17
2018-05-11T01:39:56.151Z,4.60
2018-05-11T01:42:29.412Z,4.97
2018-05-11T01:45:02.676Z,5.33
2018-05-11T01:47:35.931Z,5.13
2018-05-11T01:50:09.960Z,5.13
2018-05-11T01:52:43.215Z,5.07
2018-05-11T01:55:16.499Z,5.80
2018-05-11T01:57:49.741Z,5.33
2018-05-11T02:00:23.010Z,4.43
2018-05-11T02:02:57.049Z,4.87
2018-05-11T02:05:30.628Z,4.60
2018-05-11T02:08:03.879Z,4.73
2018-05-11T02:10:37.160Z,4.87
2018-05-11T02:13:10.404Z,4.87
2018-05-11T02:15:44.453Z,4.83
2018-05-11T02:18:17.703Z,4.37
2018-05-11T02:20:51.320Z,4.33
2018-05-11T02:23:24.564Z,4.87
2018-05-11T02:25:57.913Z,4.97
2018-05-11T02:28:31.139Z,5.00
2018-05-11T02:31:04.396Z,5.13
2018-05-11T02:33:38.417Z,4.47
2018-05-11T02:36:11.697Z,4.90
2018-05-11T02:38:44.947Z,4.53
2018-05-11T02:41:18.216Z,4.80
2018-05-11T02:43:51.480Z,4.63
2018-05-11T02:46:25.514Z,4.47
2018-05-11T02:48:58.774Z,4.30
2018-05-11T02:51:32.808Z,4.13
2018-05-11T02:54:06.068Z,4.17
2018-05-11T02:56:39.356Z,4.80
2018-05-11T02:59:12.608Z,4.80
2018-05-11T03:01:45.888Z,4.63
2018-05-11T03:04:19.153Z,4.47
2018-05-11T03:06:52.423Z,4.37
2018-05-11T03:09:25.685Z,4.87
2018-05-11T03:11:58.972Z,4.63
2018-05-11T03:14:32.256Z,4.90
2018-05-11T03:17:05.519Z,4.40
2018-05-11T03:19:38.788Z,4.57
2018-05-11T03:22:12.059Z,4.57
2018-05-11T03:24:45.316Z,4.80
2018-05-11T03:27:19.349Z,5.50
2018-05-11T03:29:52.630Z,5.10
2018-05-11T03:32:26.656Z,5.37
2018-05-11T03:34:59.933Z,4.80
2018-05-11T03:37:33.207Z,4.83
2018-05-11T03:40:06.592Z,4.93
2018-05-11T03:42:39.845Z,4.67
2018-05-11T03:45:13.133Z,4.73
2018-05-11T03:47:46.488Z,5.20
2018-05-11T03:50:19.799Z,4.93
2018-05-11T03:52:53.076Z,5.30
2018-05-11T03:55:27.113Z,4.37
2018-05-11T03:58:00.399Z,4.50
2018-05-11T04:00:34.592Z,4.53
2018-05-11T04:03:25.568Z,4.53
2018-05-11T04:06:03.003Z,3.57
2018-05-11T04:08:44.690Z,4.33
2018-05-11T04:11:18.759Z,4.30
2018-05-11T04:13:52.012Z,4.70
2018-05-11T04:16:25.320Z,4.17
2018-05-11T04:18:58.569Z,4.73
2018-05-11T04:21:31.837Z,4.40
2018-05-11T04:24:05.096Z,4.33
2018-05-11T04:26:38.368Z,4.13
2018-05-11T04:29:12.395Z,4.00
2018-05-11T04:31:45.671Z,4.30
2018-05-11T04:34:19.711Z,3.80
2018-05-11T04:36:52.997Z,3.73
2018-05-11T04:39:26.273Z,4.20
2018-05-11T04:42:00.294Z,3.47
2018-05-11T04:44:34.341Z,3.83
2018-05-11T04:47:07.597Z,4.03
2018-05-11T04:49:40.868Z,3.97
2018-05-11T04:52:14.123Z,4.00
2018-05-11T04:54:47.392Z,3.87
2018-05-11T04:57:20.653Z,3.60
2018-05-11T04:59:53.919Z,3.90
2018-05-11T05:02:27.190Z,3.73
2018-05-11T05:05:00.461Z,3.70
2018-05-11T05:07:34.493Z,3.93
2018-05-11T05:10:07.787Z,3.93
2018-05-11T05:12:41.045Z,3.87
2018-05-11T05:15:14.317Z,4.43
2018-05-11T05:17:47.571Z,3.40
2018-05-11T05:20:20.850Z,4.07
2018-05-11T05:22:54.116Z,4.40
2018-05-11T05:25:27.407Z,3.97
2018-05-11T05:28:00.665Z,4.33
2018-05-11T05:30:33.944Z,4.27
2018-05-11T05:33:07.255Z,4.10
2018-05-11T05:35:41.247Z,4.07
2018-05-11T05:38:14.507Z,4.53
2018-05-11T05:40:48.560Z,3.83
2018-05-11T05:43:21.828Z,3.57
2018-05-11T05:45:55.189Z,3.90
2018-05-11T05:48:29.131Z,3.93
2018-05-11T05:51:02.412Z,3.63
2018-05-11T05:53:36.433Z,3.63
2018-05-11T05:56:10.475Z,3.93
2018-05-11T05:58:43.723Z,4.30
2018-05-11T06:01:17.769Z,3.90
2018-05-11T06:03:51.015Z,4.13
2018-05-11T06:06:24.292Z,4.43
2018-05-11T06:08:57.558Z,4.67
2018-05-11T06:11:30.945Z,4.50
2018-05-11T06:14:04.207Z,5.40
2018-05-11T06:16:38.256Z,4.63
2018-05-11T06:19:11.516Z,5.47
2018-05-11T06:21:44.821Z,5.50
2018-05-11T06:24:18.835Z,4.87
2018-05-11T06:26:52.896Z,5.50
2018-05-11T06:29:26.163Z,5.50
2018-05-11T06:31:59.676Z,6.33
2018-05-11T06:34:33.010Z,6.10
2018-05-11T06:37:06.432Z,5.93
2018-05-11T06:39:39.706Z,6.73
2018-05-11T06:42:13.343Z,7.60
2018-05-11T06:44:46.595Z,7.60
2018-05-11T06:47:19.878Z,7.43
2018-05-11T06:49:53.159Z,8.33
2018-05-11T06:52:26.426Z,8.60
2018-05-11T06:54:59.695Z,8.43
2018-05-11T06:57:33.736Z,8.83
2018-05-11T07:00:07.756Z,8.43
2018-05-11T07:02:41.029Z,8.53
2018-05-11T07:05:14.295Z,8.87
2018-05-11T07:07:48.427Z,8.27
2018-05-11T07:10:21.597Z,7.87
2018-05-11T07:12:55.648Z,9.00
2018-05-11T07:15:28.918Z,8.27
2018-05-11T07:18:02.184Z,9.17
2018-05-11T07:20:35.456Z,9.33
2018-05-11T07:23:08.724Z,9.30
2018-05-11T07:25:41.986Z,9.67
2018-05-11T07:28:16.147Z,10.20
2018-05-11T07:30:49.404Z,9.73
2018-05-11T07:33:22.688Z,10.20
2018-05-11T07:35:56.765Z,9.50
2018-05-11T07:38:30.046Z,9.80
2018-05-11T07:41:03.328Z,9.47
2018-05-11T07:43:36.593Z,9.67
2018-05-11T07:46:10.635Z,9.80
2018-05-11T07:48:43.916Z,9.20
2018-05-11T07:51:17.193Z,8.67
2018-05-11T07:53:50.472Z,9.00
2018-05-11T07:56:24.512Z,8.80
2018-05-11T07:58:57.770Z,7.90
2018-05-11T08:01:31.043Z,8.00
2018-05-11T08:04:04.404Z,8.03
2018-05-11T08:06:37.600Z,8.27
2018-05-11T08:09:10.869Z,8.23
2018-05-11T08:11:44.912Z,8.20
2018-05-11T08:14:18.243Z,8.63
2018-05-11T08:16:52.215Z,8.90
2018-05-11T08:19:25.477Z,8.57
2018-05-11T08:21:58.751Z,8.27
2018-05-11T08:24:32.020Z,8.53
2018-05-11T08:27:05.317Z,9.13
2018-05-11T08:29:38.583Z,8.67
2018-05-11T08:32:12.228Z,8.60
2018-05-11T08:34:46.511Z,8.70
2018-05-11T08:37:20.491Z,8.37
2018-05-11T08:39:54.056Z,9.10
2018-05-11T08:42:27.713Z,8.20
2018-05-11T08:45:01.333Z,8.40
2018-05-11T08:47:34.970Z,7.47
2018-05-11T08:50:08.527Z,7.87
2018-05-11T08:52:42.229Z,8.13
2018-05-11T08:55:15.732Z,9.33
2018-05-11T08:57:49.386Z,9.53
2018-05-11T09:00:22.929Z,8.60
2018-05-11T09:02:56.830Z,9.17
2018-05-11T09:05:31.187Z,8.93
2018-05-11T09:08:04.806Z,8.40
2018-05-11T09:10:38.387Z,9.00
2018-05-11T09:13:12.050Z,8.27
2018-05-11T09:15:45.649Z,7.73
2018-05-11T09:18:19.241Z,8.67
2018-05-11T09:20:52.802Z,8.23
2018-05-11T09:23:26.456Z,8.33
2018-05-11T09:26:00.030Z,8.43
2018-05-11T09:28:33.687Z,8.43
2018-05-11T09:31:07.270Z,9.20
2018-05-11T09:33:40.826Z,8.43
2018-05-11T09:36:14.372Z,9.20
2018-05-11T09:38:48.013Z,9.57
2018-05-11T09:41:21.601Z,8.37
2018-05-11T09:43:55.222Z,8.50
2018-05-11T09:46:28.873Z,8.73
2018-05-11T09:49:02.496Z,9.20
2018-05-11T09:51:36.062Z,9.87
2018-05-11T09:54:09.723Z,10.40
2018-05-11T09:56:43.192Z,10.60
2018-05-11T09:59:17.002Z,10.23
2018-05-11T10:01:50.569Z,10.00
2018-05-11T10:04:24.123Z,9.53
2018-05-11T10:06:58.426Z,10.23
2018-05-11T10:09:32.066Z,10.43
2018-05-11T10:12:06.469Z,10.43
2018-05-11T10:14:40.912Z,9.13
2018-05-11T10:17:14.459Z,10.30
2018-05-11T10:19:48.163Z,9.67
2018-05-11T10:22:22.308Z,8.53
2018-05-11T10:24:55.944Z,9.73
2018-05-11T10:27:29.539Z,9.63
2018-05-11T10:30:03.201Z,9.53
2018-05-11T10:32:36.531Z,8.70
2018-05-11T10:35:10.196Z,8.87
2018-05-11T10:37:43.534Z,9.63
2018-05-11T10:40:16.829Z,9.83
2018-05-11T10:42:50.168Z,9.70
2018-05-11T10:45:23.504Z,10.00
2018-05-11T10:47:56.780Z,9.70
2018-05-11T10:50:30.069Z,8.83
2018-05-11T10:53:03.342Z,9.43
2018-05-11T10:55:36.653Z,9.77
2018-05-11T10:58:09.913Z,8.43
2018-05-11T11:00:43.443Z,9.33
2018-05-11T11:03:16.685Z,9.53
2018-05-11T11:05:50.059Z,8.97
2018-05-11T11:08:23.831Z,9.47
2018-05-11T11:10:57.556Z,9.13
2018-05-11T11:13:31.612Z,8.90
2018-05-11T11:16:05.503Z,8.87
2018-05-11T11:18:40.320Z,8.97
2018-05-11T11:21:14.906Z,9.07
2018-05-11T11:23:48.557Z,10.07
2018-05-11T11:26:23.588Z,9.60
2018-05-11T11:28:58.193Z,10.43
2018-05-11T11:31:31.928Z,9.07
2018-05-11T11:34:06.328Z,8.53
2018-05-11T11:36:40.036Z,8.63
2018-05-11T11:39:14.399Z,8.53
2018-05-11T11:41:48.166Z,8.67
2018-05-11T11:44:22.090Z,9.23
2018-05-11T11:46:55.815Z,8.10
2018-05-11T11:49:29.442Z,9.13
2018-05-11T11:52:03.074Z,9.10
2018-05-11T11:54:37.723Z,9.23
2018-05-11T11:57:12.351Z,8.57
2018-05-11T11:59:46.766Z,8.00
2018-05-11T12:02:21.299Z,7.80
2018-05-11T12:04:55.665Z,7.50
2018-05-11T12:07:29.296Z,8.37
2018-05-11T12:10:03.869Z,7.87
2018-05-11T12:12:37.615Z,8.60
2018-05-11T12:15:11.170Z,8.93
2018-05-11T12:17:44.782Z,7.83
2018-05-11T12:20:18.417Z,8.43
2018-05-11T12:22:52.079Z,8.93
2018-05-11T12:25:25.628Z,8.03
2018-05-11T12:28:03.666Z,8.90
2018-05-11T12:30:38.176Z,8.80
2018-05-11T12:33:12.697Z,9.20
2018-05-11T12:35:47.394Z,9.07
2018-05-11T12:38:21.010Z,7.87
2018-05-11T12:40:55.331Z,9.13
2018-05-11T12:43:28.837Z,9.30
2018-05-11T12:46:02.285Z,9.00
2018-05-11T12:48:35.621Z,7.70
2018-05-11T12:51:08.885Z,9.63
2018-05-11T12:53:42.187Z,9.30
2018-05-11T12:56:15.460Z,8.53
2018-05-11T12:58:48.759Z,10.10
2018-05-11T13:01:22.060Z,8.53
2018-05-11T13:03:55.327Z,7.97
2018-05-11T13:06:29.380Z,7.03
2018-05-11T13:09:02.664Z,8.43
2018-05-11T13:11:36.009Z,9.00
2018-05-11T13:14:09.292Z,8.80
2018-05-11T13:16:42.698Z,9.33
2018-05-11T13:19:15.963Z,9.40
2018-05-11T13:21:49.395Z,8.65
2018-05-11T13:24:23.445Z,7.77
2018-05-11T13:26:56.736Z,7.03
2018-05-11T13:29:30.019Z,8.33
2018-05-11T13:32:03.293Z,6.83
2018-05-11T13:34:36.572Z,7.93
2018-05-11T13:37:10.677Z,7.20
2018-05-11T13:39:43.931Z,7.70
2018-05-11T13:42:17.215Z,6.20
2018-05-11T13:44:50.472Z,6.80
2018-05-11T13:47:23.780Z,6.33
2018-05-11T13:49:57.039Z,5.50
2018-05-11T13:52:30.315Z,8.43
2018-05-11T13:55:03.573Z,9.07
2018-05-11T13:57:36.855Z,8.00
2018-05-11T14:00:10.103Z,6.00
2018-05-11T14:02:43.379Z,5.50
2018-05-11T14:05:16.645Z,8.47
2018-05-11T14:07:49.920Z,6.77
2018-05-11T14:10:23.202Z,9.00
2018-05-11T14:12:56.455Z,5.90
2018-05-11T14:15:29.704Z,6.13
2018-05-11T14:18:03.763Z,6.53
2018-05-11T14:20:37.021Z,8.73
2018-05-11T14:23:10.292Z,7.87
2018-05-11T14:25:43.552Z,6.33
2018-05-11T14:28:16.832Z,7.37
2018-05-11T14:30:50.088Z,7.60
2018-05-11T14:33:24.132Z,7.43
2018-05-11T14:35:57.389Z,6.53
2018-05-11T14:38:30.655Z,5.90
2018-05-11T14:41:03.908Z,5.03
2018-05-11T14:43:37.181Z,7.10
2018-05-11T14:46:10.431Z,7.20
2018-05-11T14:48:43.720Z,6.73
2018-05-11T14:51:16.982Z,7.13
2018-05-11T14:53:50.249Z,6.83
2018-05-11T14:56:24.275Z,5.90
2018-05-11T14:58:57.567Z,6.13
2018-05-11T15:01:31.623Z,6.23
2018-05-11T15:04:05.258Z,5.87
2018-05-11T15:06:38.483Z,7.10
2018-05-11T15:09:11.765Z,7.30
2018-05-11T15:11:45.792Z,5.77
2018-05-11T15:14:19.127Z,5.50
2018-05-11T15:16:52.410Z,5.57
2018-05-11T15:19:25.784Z,5.30
2018-05-11T15:21:59.051Z,5.00
2018-05-11T15:24:32.337Z,5.73
2018-05-11T15:27:05.609Z,6.50
2018-05-11T15:29:38.884Z,6.10
2018-05-11T15:32:12.138Z,5.03
2018-05-11T15:34:46.289Z,4.67
2018-05-11T15:37:19.538Z,5.00
2018-05-11T15:39:53.574Z,5.77
2018-05-11T15:42:26.832Z,4.87
2018-05-11T15:45:00.105Z,4.83
2018-05-11T15:47:33.355Z,4.70
2018-05-11T15:50:06.820Z,4.20
2018-05-11T15:52:40.067Z,4.80
2018-05-11T15:55:13.348Z,4.60
2018-05-11T15:57:46.661Z,4.53
2018-05-11T16:00:19.930Z,4.60
2018-05-11T16:02:53.204Z,3.80
2018-05-11T16:05:27.259Z,4.80
2018-05-11T16:08:00.512Z,3.73
2018-05-11T16:10:34.570Z,5.10
2018-05-11T16:13:07.881Z,5.57
2018-05-11T16:15:41.259Z,4.80
2018-05-11T16:18:17.790Z,4.80
2018-05-11T16:20:51.170Z,4.53
2018-05-11T16:23:25.194Z,4.60
2018-05-11T16:25:59.248Z,4.20
2018-05-11T16:28:32.501Z,4.37
2018-05-11T16:31:06.729Z,5.00
2018-05-11T16:33:39.991Z,4.77
2018-05-11T16:36:13.281Z,3.90
2018-05-11T16:38:46.560Z,4.27
2018-05-11T16:41:19.870Z,4.90
2018-05-11T16:43:53.135Z,5.20
2018-05-11T16:46:26.424Z,4.70
2018-05-11T16:48:59.675Z,4.77
2018-05-11T16:51:32.947Z,4.63
2018-05-11T16:54:06.976Z,4.63
2018-05-11T16:56:41.017Z,4.97
2018-05-11T16:59:14.275Z,5.23
2018-05-11T17:01:47.544Z,5.37
2018-05-11T17:04:20.800Z,4.90
2018-05-11T17:06:54.112Z,4.33
2018-05-11T17:09:27.381Z,3.83
2018-05-11T17:12:00.674Z,4.00
2018-05-11T17:14:33.928Z,4.30
2018-05-11T17:17:07.195Z,5.43
2018-05-11T17:19:40.449Z,5.13
2018-05-11T17:22:13.737Z,4.80
2018-05-11T17:24:47.000Z,4.67
2018-05-11T17:27:20.297Z,4.83
2018-05-11T17:29:53.556Z,5.43
2018-05-11T17:32:26.816Z,5.13
2018-05-11T17:35:00.080Z,5.30
2018-05-11T17:37:33.366Z,5.00
2018-05-11T17:40:06.629Z,5.53
2018-05-11T17:42:39.900Z,4.83
2018-05-11T17:45:13.152Z,4.97
2018-05-11T17:47:46.445Z,4.17
2018-05-11T17:50:19.708Z,4.40
2018-05-11T17:52:53.054Z,4.23
2018-05-11T17:55:26.311Z,4.03
2018-05-11T17:57:59.601Z,5.00
2018-05-11T18:00:32.850Z,4.70
2018-05-11T18:03:06.158Z,5.17
2018-05-11T18:05:40.152Z,4.43
2018-05-11T18:08:13.423Z,4.27
2018-05-11T18:10:46.692Z,4.77
2018-05-11T18:13:19.976Z,4.27
2018-05-11T18:15:53.244Z,4.70
2018-05-11T18:18:26.511Z,3.90
2018-05-11T18:21:00.532Z,4.27
2018-05-11T18:23:33.814Z,4.27
2018-05-11T18:26:07.851Z,4.53
2018-05-11T18:28:41.102Z,3.90
2018-05-11T18:31:14.387Z,3.87
2018-05-11T18:33:47.644Z,3.50
2018-05-11T18:36:20.933Z,4.27
2018-05-11T18:38:54.198Z,4.23
2018-05-11T18:41:27.472Z,3.70
2018-05-11T18:44:00.765Z,3.93
2018-05-11T18:46:34.044Z,4.37
2018-05-11T18:49:07.338Z,4.47
2018-05-11T18:51:40.625Z,4.10
2018-05-11T18:54:14.254Z,4.07
2018-05-11T18:56:47.175Z,4.07
2018-05-11T18:59:20.429Z,4.10
2018-05-11T19:01:53.736Z,4.27
2018-05-11T19:04:26.999Z,4.70
2018-05-11T19:07:00.276Z,5.17
2018-05-11T19:09:33.536Z,5.73
2018-05-11T19:12:06.836Z,5.53
2018-05-11T19:14:40.094Z,5.23
2018-05-11T19:17:13.351Z,5.63
2018-05-11T19:19:46.604Z,5.97
2018-05-11T19:22:19.882Z,6.03
2018-05-11T19:24:53.139Z,6.20
2018-05-11T19:27:26.407Z,6.90
2018-05-11T19:29:59.704Z,5.10
2018-05-11T19:32:32.990Z,5.00
2018-05-11T19:35:06.274Z,4.40
2018-05-11T19:37:40.311Z,5.50
2018-05-11T19:40:13.559Z,6.37
2018-05-11T19:42:46.843Z,6.30
2018-05-11T19:45:20.095Z,6.03
2018-05-11T19:47:53.376Z,5.33
2018-05-11T19:50:26.659Z,7.07
2018-05-11T19:52:59.931Z,6.97
2018-05-11T19:55:33.952Z,6.77
2018-05-11T19:58:07.253Z,7.30
2018-05-11T20:00:40.522Z,7.03
2018-05-11T20:03:14.037Z,7.20
2018-05-11T20:05:47.408Z,7.97
2018-05-11T20:08:26.172Z,8.70
2018-05-11T20:10:59.443Z,7.57
2018-05-11T20:13:32.712Z,7.57
2018-05-11T20:16:06.007Z,7.37
2018-05-11T20:18:39.298Z,8.07
2018-05-11T20:21:12.552Z,7.10
2018-05-11T20:23:45.856Z,6.87
2018-05-11T20:26:19.139Z,8.10
2018-05-11T20:28:52.525Z,8.67
2018-05-11T20:31:25.824Z,8.93
2018-05-11T20:33:59.109Z,9.30
2018-05-11T20:36:32.355Z,8.67
2018-05-11T20:39:06.484Z,9.20
2018-05-11T20:41:39.771Z,9.77
2018-05-11T20:44:13.048Z,8.97
2018-05-11T20:46:46.317Z,9.90
2018-05-11T20:49:19.647Z,10.23
2018-05-11T20:51:52.916Z,10.37
2018-05-11T20:54:26.209Z,10.73
2018-05-11T20:56:59.465Z,10.23
2018-05-11T20:59:33.514Z,10.70
2018-05-11T21:02:06.777Z,10.13
2018-05-11T21:04:40.829Z,10.87
2018-05-11T21:07:14.091Z,12.13
2018-05-11T21:09:47.385Z,11.73
2018-05-11T21:12:21.415Z,11.97
2018-05-11T21:14:54.696Z,10.50
2018-05-11T21:17:27.962Z,11.43
2018-05-11T21:20:01.260Z,11.93
2018-05-11T21:22:34.546Z,12.17
2018-05-11T21:25:07.860Z,9.77
2018-05-11T21:27:41.892Z,10.33
2018-05-11T21:30:15.172Z,12.43
2018-05-11T21:32:48.437Z,11.77
2018-05-11T21:35:21.727Z,12.03
2018-05-11T21:37:54.990Z,11.70
2018-05-11T21:40:28.260Z,11.80
2018-05-11T21:43:01.527Z,12.23
2018-05-11T21:45:35.571Z,12.53
2018-05-11T21:48:08.836Z,13.00
2018-05-11T21:50:42.965Z,13.03
2018-05-11T21:53:16.143Z,12.30
2018-05-11T21:55:50.213Z,13.20
2018-05-11T21:58:23.481Z,13.03
2018-05-11T22:00:56.753Z,11.87
2018-05-11T22:03:30.015Z,10.43
2018-05-11T22:06:03.882Z,11.40
2018-05-11T22:08:37.116Z,9.80
2018-05-11T22:11:10.403Z,11.47
2018-05-11T22:13:43.657Z,9.73
2018-05-11T22:16:16.967Z,11.73
2018-05-11T22:18:50.234Z,11.70
2018-05-11T22:21:23.512Z,11.33
2018-05-11T22:23:57.544Z,11.30
2018-05-11T22:26:30.843Z,11.20
2018-05-11T22:29:04.102Z,12.87
